WetterOnline ( https://www.wetteronline.de )

Wetter aktuell Hunsrück (in 400m)

Aktuelles Wetter: Deuselbach (483m)

6-stündlich | Neueste Meldungen
Ortszeit Temperatur Wetter
Di, 29.11. 1:00 6.0° C Sprühregen
Mo, 28.11. 19:00 6.2° C leichter Regen
Mo, 28.11. 13:00 6.8° C leichter Regen
Mo, 28.11. 7:00 5.8° C bewölkt
Mo, 28.11. 1:00 6.0° C bewölkt
So, 27.11. 19:00 6.6° C bedeckt
So, 27.11. 13:00 6.5° C wolkig
So, 27.11. 7:00 1.7° C bedeckt
Ortszeit Temperatur Wetter
Di, 29.11. 2:30 5.9° C Nebel
Di, 29.11. 2:20 5.9° C Nebel
Di, 29.11. 2:10 5.9° C Nebel
Di, 29.11. 2:00 5.9° C Nebel
Di, 29.11. 1:50 5.9° C Nebel
Di, 29.11. 1:40 5.9° C Sprühregen
Di, 29.11. 1:30 5.9° C leichter Regen
Di, 29.11. 1:00 6.0° C Sprühregen
Di, 29.11. 0:30 6.0° C leichter Regen
Di, 29.11. 0:00 6.0° C leichter Regen
Mo, 28.11. 23:30 5.9° C leichter Regen
Ortszeit Relative Feuchte Sichtweite
Di, 29.11. 1:00 99% 2.9 km
Mo, 28.11. 19:00 95% 10 km
Mo, 28.11. 13:00 90% 30 km
Mo, 28.11. 7:00 79% 50 km
Mo, 28.11. 1:00 75% 50 km
So, 27.11. 19:00 70% 60 km
So, 27.11. 13:00 73% 55 km
So, 27.11. 7:00 93% 22 km
Ortszeit Relative Feuchte Sichtweite
Di, 29.11. 2:30 100% 0.3 km
Di, 29.11. 2:20 100% -
Di, 29.11. 2:10 100% -
Di, 29.11. 2:00 100% 0.3 km
Di, 29.11. 1:50 100% -
Di, 29.11. 1:40 100% -
Di, 29.11. 1:30 99% 0.3 km
Di, 29.11. 1:00 99% 2.9 km
Di, 29.11. 0:30 99% 0.4 km
Di, 29.11. 0:00 99% 1.4 km
Mo, 28.11. 23:30 99% 0.4 km
Ortszeit Niederschlagsmenge Niederschlagsart
Di, 29.11. 1:00 2 l/m2 in 6 Std. Regen
Mo, 28.11. 19:00 0.1 l/m2 in 12 Std. Regen
Mo, 28.11. 13:00 0.1 l/m2 in 6 Std. Regen
Mo, 28.11. 7:00 0.1 l/m2 in 12 Std. Regen
Mo, 28.11. 1:00 0.0 l/m2 in 6 Std. -
So, 27.11. 19:00 0.1 l/m2 in 12 Std. Regen
So, 27.11. 13:00 0.0 l/m2 in 6 Std. -
So, 27.11. 7:00 0.0 l/m2 in 12 Std. -
Ortszeit Niederschlagsmenge Niederschlagsart
Di, 29.11. 2:30 <0.05 l/m2 in 1 Std. -
Di, 29.11. 2:20 keine Meldung -
Di, 29.11. 2:10 keine Meldung -
Di, 29.11. 2:00 0.1 l/m2 in 1 Std. Regen
Di, 29.11. 1:50 keine Meldung -
Di, 29.11. 1:40 keine Meldung -
Di, 29.11. 1:30 0.1 l/m2 in 1 Std. -
Di, 29.11. 1:00 0.3 l/m2 in 1 Std. Regen
Di, 29.11. 0:30 0.2 l/m2 in 1 Std. -
Di, 29.11. 0:00 0.4 l/m2 in 1 Std. Regen
Mo, 28.11. 23:30 0.2 l/m2 in 1 Std. -
Ortszeit Stärke Spitze Richtung
km/h Bft. km/h Grad Sektor
Di, 29.11. 1:00 7 2 11 300° NW
Mo, 28.11. 19:00 7 2 22 240° SW
Mo, 28.11. 13:00 9 2 31 240° SW
Mo, 28.11. 7:00 7 2 32 210° SW
Mo, 28.11. 1:00 9 2 44 220° SW
So, 27.11. 19:00 11 2 43 210° SW
So, 27.11. 13:00 6 1 19 140° SO
So, 27.11. 7:00 4 1 18 290° W
Ortszeit Stärke Spitze Richtung
km/h Bft. km/h Grad Sektor
Di, 29.11. 2:30 9 2 11 310° NW
Di, 29.11. 2:20 9 2 - 310° NW
Di, 29.11. 2:10 7 2 - 310° NW
Di, 29.11. 2:00 7 2 14 310° NW
Di, 29.11. 1:50 7 2 - 310° NW
Di, 29.11. 1:40 9 2 - 310° NW
Di, 29.11. 1:30 9 2 13 320° NW
Di, 29.11. 1:00 7 2 11 300° NW
Di, 29.11. 0:30 4 1 7 280° W
Di, 29.11. 0:00 4 1 7 250° W
Mo, 28.11. 23:30 4 1 7 290° W
Ortszeit Untergrenze Bedeckung Gattung
total tief tief mittel hoch
Di, 29.11. 1:00 60 m 8/8 8/8 - - -
Mo, 28.11. 19:00 180 m 8/8 8/8 - - -
Mo, 28.11. 13:00 720 m 8/8 8/8 - - -
Mo, 28.11. 7:00 1080 m 8/8 7/8 - - -
Mo, 28.11. 1:00 2100 m 8/8 6/8 - - -
So, 27.11. 19:00 2100 m 8/8 8/8 - - -
So, 27.11. 13:00 2700 m 8/8 3/8 - - -
So, 27.11. 7:00 3300 m 8/8 8/8 - - -
Ortszeit Bedeckungsgrad in Achtel und Wolkenuntergrenze
Di, 29.11. 2:30 7(<30m)
Di, 29.11. 2:20 7(<30m)
Di, 29.11. 2:10 7
Di, 29.11. 2:00 7(<30m) 7(300m)
Di, 29.11. 1:50 7(<30m) 7(300m)
Di, 29.11. 1:40 7
Di, 29.11. 1:30 7(<30m)
Di, 29.11. 1:00 8(60m)
Di, 29.11. 0:30 8(90m)
Di, 29.11. 0:00 8(90m)
Mo, 28.11. 23:30 8(60m)
Ortszeit Luftdruck NN (hPa) Tendenz (hPa in 3 Std.)
Di, 29.11. 1:00 1015 + 0,4
Mo, 28.11. 19:00 1013 + 0,8
Mo, 28.11. 13:00 1013 + 0,2
Mo, 28.11. 7:00 1012 - 0,3
Mo, 28.11. 1:00 1015 - 0,8
So, 27.11. 19:00 1018 - 2,0
So, 27.11. 13:00 1022 - 1,5
So, 27.11. 7:00 1027 - 1,1
Ortszeit Luftdruck NN (hPa) Tendenz (hPa in 3 Std.)
Di, 29.11. 2:30 1015 + 0,6
Di, 29.11. 2:20 1015 keine Meldung
Di, 29.11. 2:10 1015 keine Meldung
Di, 29.11. 2:00 1015 + 0,5
Di, 29.11. 1:50 1015 keine Meldung
Di, 29.11. 1:40 1015 keine Meldung
Di, 29.11. 1:30 1015 + 0,4
Di, 29.11. 1:00 1015 + 0,4
Di, 29.11. 0:30 1014 + 0,5
Di, 29.11. 0:00 1014 + 0,6
Mo, 28.11. 23:30 1014 + 0,6
Ortszeit Schneehöhe (cm)
Di, 29.11. 1:00 0
Mo, 28.11. 19:00 0
Mo, 28.11. 13:00 0
Mo, 28.11. 7:00 0
Mo, 28.11. 1:00 0
So, 27.11. 19:00 0
So, 27.11. 13:00 0
So, 27.11. 7:00 0
Ortszeit Schneehöhe (cm)
Di, 29.11. 2:30 0
Di, 29.11. 2:20 0
Di, 29.11. 2:10 0
Di, 29.11. 2:00 0
Di, 29.11. 1:50 0
Di, 29.11. 1:40 0
Di, 29.11. 1:30 0
Di, 29.11. 1:00 0
Di, 29.11. 0:30 0
Di, 29.11. 0:00 0
Mo, 28.11. 23:30 0
Link zu dieser Seite / Seite empfehlen

Das Wetter in ...